createdAt,value
2023-07-19T00:02:17.904Z,19.98
2023-07-19T00:04:48.809Z,20.01
2023-07-19T00:07:15.836Z,20.45
2023-07-19T00:09:42.690Z,19.98
2023-07-19T00:12:11.982Z,20.41
2023-07-19T00:14:38.734Z,19.61
2023-07-19T00:17:07.511Z,20.12
2023-07-19T00:19:34.350Z,19.94
2023-07-19T00:22:06.059Z,19.75
2023-07-19T00:24:33.312Z,20.22
2023-07-19T00:27:00.287Z,20.18
2023-07-19T00:29:27.074Z,19.55
2023-07-19T00:31:54.099Z,19.95
2023-07-19T00:34:20.888Z,19.02
2023-07-19T00:36:47.791Z,19.79
2023-07-19T00:39:14.540Z,18.66
2023-07-19T00:41:41.305Z,19.49
2023-07-19T00:44:08.024Z,19.46
2023-07-19T00:46:34.983Z,19.42
2023-07-19T00:49:02.257Z,19.04
2023-07-19T00:51:31.553Z,19.38
2023-07-19T00:54:03.382Z,19.71
2023-07-19T00:56:31.114Z,19.66
2023-07-19T00:58:59.152Z,19.16
2023-07-19T01:01:27.553Z,19.28
2023-07-19T01:03:56.794Z,19.19
2023-07-19T01:06:23.628Z,18.70
2023-07-19T01:08:51.000Z,19.46
2023-07-19T01:11:17.848Z,18.55
2023-07-19T01:13:55.108Z,19.26
2023-07-19T01:16:22.588Z,19.36
2023-07-19T01:18:50.547Z,19.40
2023-07-19T01:21:23.908Z,18.80
2023-07-19T01:23:52.235Z,17.66
2023-07-19T01:26:21.415Z,18.11
2023-07-19T01:28:48.199Z,19.29
2023-07-19T01:31:20.098Z,18.52
2023-07-19T01:33:49.383Z,18.48
2023-07-19T01:36:18.445Z,18.52
2023-07-19T01:38:45.226Z,19.19
2023-07-19T01:41:12.018Z,18.90
2023-07-19T01:43:41.278Z,18.78
2023-07-19T01:46:08.019Z,18.17
2023-07-19T01:48:39.362Z,18.87
2023-07-19T01:51:08.322Z,18.91
2023-07-19T01:53:35.842Z,18.58
2023-07-19T01:56:04.787Z,18.61
2023-07-19T01:58:34.039Z,18.37
2023-07-19T02:01:01.001Z,18.02
2023-07-19T02:03:30.158Z,18.62
2023-07-19T02:06:00.077Z,18.76
2023-07-19T02:08:27.312Z,18.68
2023-07-19T02:10:55.514Z,18.72
2023-07-19T02:13:22.754Z,18.43
2023-07-19T02:15:49.529Z,17.92
2023-07-19T02:18:16.536Z,17.62
2023-07-19T02:20:48.661Z,18.64
2023-07-19T02:23:19.630Z,17.65
2023-07-19T02:25:50.698Z,18.66
2023-07-19T02:28:23.355Z,18.36
2023-07-19T02:30:54.904Z,18.66
2023-07-19T02:33:21.713Z,18.62
2023-07-19T02:35:55.343Z,18.60
2023-07-19T02:38:23.060Z,18.05
2023-07-19T02:40:50.050Z,18.58
2023-07-19T02:43:17.024Z,17.95
2023-07-19T02:45:43.847Z,18.58
2023-07-19T02:48:10.571Z,17.73
2023-07-19T02:50:37.406Z,18.41
2023-07-19T02:53:04.159Z,17.88
2023-07-19T02:55:31.619Z,18.43
2023-07-19T02:57:58.560Z,18.50
2023-07-19T03:00:27.874Z,18.41
2023-07-19T03:02:55.762Z,17.67
2023-07-19T03:05:23.694Z,17.85
2023-07-19T03:07:51.069Z,18.18
2023-07-19T03:10:20.346Z,17.89
2023-07-19T03:12:47.165Z,18.36
2023-07-19T03:15:14.069Z,18.43
2023-07-19T03:17:40.885Z,18.41
2023-07-19T03:20:08.471Z,18.40
2023-07-19T03:22:35.372Z,18.18
2023-07-19T03:25:02.217Z,18.09
2023-07-19T03:27:28.973Z,18.28
2023-07-19T03:29:57.743Z,18.39
2023-07-19T03:32:24.544Z,18.18
2023-07-19T03:34:54.086Z,18.38
2023-07-19T03:37:20.776Z,17.72
2023-07-19T03:39:47.546Z,18.22
2023-07-19T03:42:14.377Z,18.03
2023-07-19T03:44:41.106Z,17.51
2023-07-19T03:47:08.181Z,17.53
2023-07-19T03:49:37.413Z,18.34
2023-07-19T03:52:04.305Z,18.03
2023-07-19T03:54:33.430Z,18.16
2023-07-19T03:57:00.362Z,18.13
2023-07-19T03:59:27.239Z,17.28
2023-07-19T04:01:54.136Z,18.13
2023-07-19T04:04:23.240Z,18.26
2023-07-19T04:06:52.299Z,18.25
2023-07-19T04:09:21.316Z,17.92
2023-07-19T04:11:48.258Z,18.19
2023-07-19T04:14:15.048Z,17.16
2023-07-19T04:16:42.920Z,18.22
2023-07-19T04:19:09.730Z,18.16
2023-07-19T04:21:36.477Z,17.25
2023-07-19T04:24:05.720Z,17.84
2023-07-19T04:26:34.835Z,17.17
2023-07-19T04:29:06.296Z,18.20
2023-07-19T04:31:35.327Z,18.12
2023-07-19T04:34:02.030Z,17.89
2023-07-19T04:36:33.529Z,17.04
2023-07-19T04:39:00.217Z,17.77
2023-07-19T04:41:29.253Z,17.68
2023-07-19T04:43:56.094Z,17.61
2023-07-19T04:46:28.199Z,17.48
2023-07-19T04:48:57.341Z,17.24
2023-07-19T04:51:24.098Z,17.36
2023-07-19T04:53:50.999Z,17.72
2023-07-19T04:56:20.044Z,16.98
2023-07-19T04:58:49.306Z,17.11
2023-07-19T05:01:16.169Z,17.37
2023-07-19T05:03:43.088Z,18.23
2023-07-19T05:06:09.920Z,16.91
2023-07-19T05:08:39.173Z,18.25
2023-07-19T05:11:08.478Z,18.28
2023-07-19T05:13:37.351Z,18.19
2023-07-19T05:16:04.907Z,17.10
2023-07-19T05:18:32.186Z,17.93
2023-07-19T05:21:01.593Z,18.14
2023-07-19T05:23:28.405Z,18.05
2023-07-19T05:25:55.267Z,18.33
2023-07-19T05:28:24.374Z,18.35
2023-07-19T05:30:51.309Z,17.84
2023-07-19T05:33:18.357Z,18.24
2023-07-19T05:35:48.622Z,18.33
2023-07-19T05:38:15.329Z,17.43
2023-07-19T05:40:42.155Z,18.27
2023-07-19T05:43:09.119Z,18.04
2023-07-19T05:45:37.106Z,18.30
2023-07-19T05:48:04.250Z,18.51
2023-07-19T05:50:31.465Z,17.81
2023-07-19T05:52:58.348Z,17.83
2023-07-19T05:55:27.365Z,18.27
2023-07-19T05:57:58.777Z,17.86
2023-07-19T06:00:29.774Z,18.58
2023-07-19T06:02:57.051Z,18.68
2023-07-19T06:05:27.303Z,18.32
2023-07-19T06:07:54.693Z,18.08
2023-07-19T06:10:21.688Z,18.39
2023-07-19T06:12:48.727Z,19.04
2023-07-19T06:15:18.276Z,19.12
2023-07-19T06:17:45.159Z,19.10
2023-07-19T06:20:12.415Z,19.10
2023-07-19T06:22:39.383Z,18.46
2023-07-19T06:25:07.110Z,19.42
2023-07-19T06:27:36.325Z,19.21
2023-07-19T06:30:06.218Z,19.43
2023-07-19T06:32:32.913Z,18.96
2023-07-19T06:35:01.915Z,19.51
2023-07-19T06:37:33.900Z,19.64
2023-07-19T06:40:04.042Z,19.76
2023-07-19T06:42:33.840Z,19.12
2023-07-19T06:45:03.763Z,20.28
2023-07-19T06:47:31.330Z,20.22
2023-07-19T06:50:01.530Z,20.54
2023-07-19T06:52:29.276Z,20.64
2023-07-19T06:54:58.937Z,19.82
2023-07-19T06:57:25.649Z,20.09
2023-07-19T06:59:53.562Z,21.41
2023-07-19T07:02:22.652Z,21.59
2023-07-19T07:04:50.913Z,21.62
2023-07-19T07:07:19.706Z,21.39
2023-07-19T07:09:51.860Z,21.60
2023-07-19T07:12:18.614Z,22.06
2023-07-19T07:14:50.489Z,22.10
2023-07-19T07:17:19.995Z,21.72
2023-07-19T07:19:46.798Z,22.11
2023-07-19T07:22:13.521Z,22.37
2023-07-19T07:24:40.900Z,22.54
2023-07-19T07:27:07.828Z,22.49
2023-07-19T07:29:38.022Z,22.25
2023-07-19T07:32:04.944Z,22.42
2023-07-19T07:34:31.610Z,22.29
2023-07-19T07:36:58.396Z,22.08
2023-07-19T07:39:25.034Z,22.40
2023-07-19T07:41:51.757Z,22.52
2023-07-19T07:44:18.589Z,22.32
2023-07-19T07:46:48.217Z,22.77
2023-07-19T07:49:17.486Z,22.08
2023-07-19T07:51:44.769Z,22.68
2023-07-19T07:54:11.482Z,22.70
2023-07-19T07:56:38.473Z,23.54
2023-07-19T07:59:07.481Z,23.63
2023-07-19T08:01:34.317Z,23.45
2023-07-19T08:04:01.842Z,23.03
2023-07-19T08:06:28.663Z,22.72
2023-07-19T08:08:57.889Z,23.78
2023-07-19T08:11:26.258Z,23.46
2023-07-19T08:13:55.305Z,23.13
2023-07-19T08:16:22.227Z,23.97
2023-07-19T08:18:49.336Z,23.89
2023-07-19T08:21:29.933Z,23.61
2023-07-19T08:24:02.578Z,24.38
2023-07-19T08:26:29.314Z,24.44
2023-07-19T08:28:58.637Z,24.54
2023-07-19T08:31:25.411Z,24.67
2023-07-19T08:33:54.594Z,24.53
2023-07-19T08:36:23.997Z,25.01
2023-07-19T08:38:50.955Z,24.98
2023-07-19T08:41:25.838Z,25.00
2023-07-19T08:43:56.704Z,24.68
2023-07-19T08:46:23.979Z,25.29
2023-07-19T08:48:51.376Z,25.24
2023-07-19T08:51:19.610Z,25.59
2023-07-19T08:53:46.735Z,25.64
2023-07-19T08:56:14.593Z,25.69
2023-07-19T08:58:41.448Z,25.52
2023-07-19T09:01:08.752Z,25.81
2023-07-19T09:03:38.061Z,25.50
2023-07-19T09:06:04.915Z,25.35
2023-07-19T09:08:37.291Z,25.53
2023-07-19T09:11:09.423Z,25.85
2023-07-19T09:13:39.780Z,25.51
2023-07-19T09:16:08.057Z,25.51
2023-07-19T09:18:40.001Z,24.73
2023-07-19T09:21:07.152Z,24.96
2023-07-19T09:23:38.019Z,24.95
2023-07-19T09:26:07.567Z,24.73
2023-07-19T09:28:36.099Z,23.71
2023-07-19T09:33:33.687Z,23.84
2023-07-19T09:36:00.338Z,24.39
2023-07-19T09:38:27.376Z,24.44
2023-07-19T09:40:55.280Z,24.14
2023-07-19T09:43:22.844Z,24.80
2023-07-19T09:45:51.204Z,24.60
2023-07-19T09:48:19.564Z,24.83
2023-07-19T09:50:54.760Z,24.67
2023-07-19T09:53:24.179Z,24.22
2023-07-19T09:55:54.076Z,24.70
2023-07-19T09:58:23.145Z,24.94
2023-07-19T10:00:50.478Z,24.74
2023-07-19T10:03:23.123Z,24.63
2023-07-19T10:06:00.145Z,25.03
2023-07-19T10:08:28.279Z,25.11
2023-07-19T10:10:58.991Z,25.29
2023-07-19T10:13:33.161Z,25.41
2023-07-19T10:16:02.332Z,25.51
2023-07-19T10:18:34.333Z,25.64
2023-07-19T10:21:07.209Z,24.80
2023-07-19T10:23:36.324Z,25.79
2023-07-19T10:26:11.104Z,25.94
2023-07-19T10:28:39.618Z,25.76
2023-07-19T10:31:27.384Z,25.43
2023-07-19T10:33:56.635Z,26.02
2023-07-19T10:36:26.522Z,26.00
2023-07-19T10:38:53.455Z,25.65
2023-07-19T10:41:31.299Z,26.16
2023-07-19T10:44:02.652Z,25.26
2023-07-19T10:46:31.091Z,26.21
2023-07-19T10:48:59.770Z,26.30
2023-07-19T10:51:26.638Z,26.22
2023-07-19T10:54:00.425Z,25.79
2023-07-19T10:56:31.464Z,26.45
2023-07-19T10:59:02.254Z,25.86
2023-07-19T11:01:31.913Z,26.32
2023-07-19T11:04:04.096Z,25.77
2023-07-19T11:06:31.366Z,26.30
2023-07-19T11:09:05.692Z,26.03
2023-07-19T11:11:36.899Z,25.75
2023-07-19T11:14:03.849Z,26.10
2023-07-19T11:16:32.873Z,26.40
2023-07-19T11:18:59.541Z,26.25
2023-07-19T11:21:29.828Z,26.11
2023-07-19T11:23:59.385Z,25.87
2023-07-19T11:26:26.121Z,25.58
2023-07-19T11:29:00.127Z,26.49
2023-07-19T11:31:34.047Z,26.36
2023-07-19T11:34:05.517Z,26.35
2023-07-19T11:36:33.278Z,25.46
2023-07-19T11:39:00.416Z,26.01
2023-07-19T11:41:30.335Z,25.90
2023-07-19T11:43:59.569Z,25.67
2023-07-19T11:46:28.745Z,25.99
2023-07-19T11:48:57.918Z,26.18
2023-07-19T11:51:24.805Z,26.54
2023-07-19T11:53:51.823Z,26.56
2023-07-19T11:56:21.171Z,26.54
2023-07-19T11:58:50.499Z,26.68
2023-07-19T12:01:21.878Z,26.15
2023-07-19T12:03:49.252Z,25.90
2023-07-19T12:06:15.996Z,26.20
2023-07-19T12:08:42.749Z,27.01
2023-07-19T12:11:09.608Z,25.87
2023-07-19T12:13:36.841Z,26.63
2023-07-19T12:16:07.373Z,27.22
2023-07-19T12:18:34.137Z,27.24
2023-07-19T12:21:01.425Z,26.89
2023-07-19T12:25:58.755Z,27.14
2023-07-19T12:28:27.885Z,26.71
2023-07-19T12:30:59.296Z,26.33
2023-07-19T12:33:28.546Z,26.97
2023-07-19T12:35:55.255Z,27.11
2023-07-19T12:38:21.982Z,25.92
2023-07-19T12:40:48.763Z,26.54
2023-07-19T12:43:17.718Z,26.24
2023-07-19T12:45:44.973Z,26.03
2023-07-19T12:48:14.175Z,26.27
2023-07-19T12:50:43.725Z,26.27
2023-07-19T12:53:10.477Z,25.89
2023-07-19T12:55:37.242Z,26.24
2023-07-19T12:58:06.097Z,26.29
2023-07-19T13:00:36.149Z,25.91
2023-07-19T13:03:05.209Z,26.14
2023-07-19T13:05:33.473Z,26.36
2023-07-19T13:08:03.304Z,26.27
2023-07-19T13:10:30.264Z,25.78
2023-07-19T13:12:56.957Z,26.17
2023-07-19T13:15:23.637Z,25.29
2023-07-19T13:17:50.485Z,26.26
2023-07-19T13:20:17.176Z,26.13
2023-07-19T13:22:43.877Z,25.85
2023-07-19T13:25:10.512Z,25.97
2023-07-19T13:27:37.497Z,26.18
2023-07-19T13:30:07.712Z,25.96
2023-07-19T13:32:35.531Z,25.55
2023-07-19T13:35:02.501Z,26.24
2023-07-19T13:38:06.612Z,25.06
2023-07-19T13:40:18.061Z,25.75
2023-07-19T13:42:44.804Z,25.89
2023-07-19T13:45:11.907Z,25.80
2023-07-19T13:47:42.827Z,25.95
2023-07-19T13:50:12.254Z,25.83
2023-07-19T13:52:41.305Z,25.90
2023-07-19T13:55:08.646Z,25.78
2023-07-19T13:57:35.439Z,25.92
2023-07-19T14:00:02.206Z,25.88
2023-07-19T14:02:34.264Z,25.80
2023-07-19T14:05:01.212Z,25.83
2023-07-19T14:07:28.084Z,25.50
2023-07-19T14:09:54.737Z,25.47
2023-07-19T14:12:35.584Z,25.37
2023-07-19T14:15:05.125Z,25.69
2023-07-19T14:17:32.293Z,25.84
2023-07-19T14:19:59.369Z,25.48
2023-07-19T14:22:28.955Z,25.47
2023-07-19T14:24:58.092Z,25.82
2023-07-19T14:27:24.749Z,25.53
2023-07-19T14:29:53.816Z,25.71
2023-07-19T14:32:22.049Z,25.86
2023-07-19T14:34:49.122Z,25.27
2023-07-19T14:37:17.209Z,25.80
2023-07-19T14:39:44.328Z,25.06
2023-07-19T14:42:11.154Z,25.55
2023-07-19T14:44:37.950Z,25.09
2023-07-19T14:47:04.841Z,25.22
2023-07-19T14:49:32.742Z,25.39
2023-07-19T14:51:59.442Z,25.50
2023-07-19T14:54:26.570Z,25.50
2023-07-19T14:57:05.473Z,25.43
2023-07-19T14:59:32.769Z,25.46
2023-07-19T15:01:59.789Z,25.43
2023-07-19T15:04:26.727Z,25.36
2023-07-19T15:06:53.930Z,24.90
2023-07-19T15:09:20.846Z,25.46
2023-07-19T15:11:50.427Z,24.46
2023-07-19T15:14:17.973Z,25.41
2023-07-19T15:16:44.711Z,24.21
2023-07-19T15:19:11.867Z,25.39
2023-07-19T15:21:41.617Z,24.49
2023-07-19T15:24:10.346Z,25.53
2023-07-19T15:26:40.567Z,24.76
2023-07-19T15:29:09.793Z,25.09
2023-07-19T15:31:36.592Z,24.97
2023-07-19T15:34:03.605Z,25.05
2023-07-19T15:36:32.842Z,24.79
2023-07-19T15:38:59.578Z,24.78
2023-07-19T15:41:28.451Z,24.36
2023-07-19T15:43:57.447Z,24.22
2023-07-19T15:46:36.305Z,25.49
2023-07-19T15:49:03.960Z,24.18
2023-07-19T15:51:31.573Z,25.33
2023-07-19T15:53:58.355Z,25.31
2023-07-19T15:56:25.048Z,24.85
2023-07-19T15:58:53.889Z,25.04
2023-07-19T16:01:20.960Z,25.14
2023-07-19T16:03:50.343Z,24.64
2023-07-19T16:06:18.288Z,25.26
2023-07-19T16:08:47.547Z,24.73
2023-07-19T16:11:17.216Z,25.29
2023-07-19T16:13:48.744Z,25.02
2023-07-19T16:16:15.423Z,25.17
2023-07-19T16:18:42.083Z,25.11
2023-07-19T16:21:08.927Z,24.48
2023-07-19T16:23:35.727Z,24.38
2023-07-19T16:26:04.658Z,24.99
2023-07-19T16:28:33.838Z,24.86
2023-07-19T16:31:00.861Z,24.56
2023-07-19T16:33:27.629Z,24.42
2023-07-19T16:35:59.181Z,24.67
2023-07-19T16:38:28.422Z,24.82
2023-07-19T16:40:57.459Z,24.58
2023-07-19T16:43:25.976Z,24.17
2023-07-19T16:45:53.336Z,24.60
2023-07-19T16:48:22.033Z,24.21
2023-07-19T16:50:51.285Z,23.91
2023-07-19T16:53:19.434Z,24.44
2023-07-19T16:55:49.489Z,24.01
2023-07-19T16:58:16.940Z,23.82
2023-07-19T17:00:44.737Z,24.31
2023-07-19T17:03:11.722Z,23.19
2023-07-19T17:05:39.237Z,24.05
2023-07-19T17:08:08.635Z,23.71
2023-07-19T17:10:36.094Z,23.88
2023-07-19T17:13:05.240Z,23.36
2023-07-19T17:15:38.268Z,23.56
2023-07-19T17:18:06.785Z,23.94
2023-07-19T17:20:34.855Z,23.66
2023-07-19T17:23:01.731Z,23.66
2023-07-19T17:25:28.914Z,23.54
2023-07-19T17:27:55.575Z,23.34
2023-07-19T17:30:23.574Z,22.79
2023-07-19T17:32:50.291Z,22.76
2023-07-19T17:35:17.528Z,23.39
2023-07-19T17:37:47.121Z,23.41
2023-07-19T17:40:14.282Z,23.41
2023-07-19T17:42:43.993Z,22.74
2023-07-19T17:45:11.452Z,23.11
2023-07-19T17:47:38.162Z,23.22
2023-07-19T17:50:09.853Z,23.28
2023-07-19T17:52:37.739Z,22.83
2023-07-19T17:55:05.044Z,22.87
2023-07-19T17:57:31.835Z,23.00
2023-07-19T17:59:58.581Z,22.76
2023-07-19T18:02:27.804Z,22.68
2023-07-19T18:04:54.565Z,22.44
2023-07-19T18:07:21.267Z,22.53
2023-07-19T18:09:48.045Z,22.35
2023-07-19T18:12:14.854Z,22.03
2023-07-19T18:14:42.678Z,22.75
2023-07-19T18:17:11.816Z,22.53
2023-07-19T18:19:38.691Z,21.41
2023-07-19T18:22:05.767Z,21.22
2023-07-19T18:24:33.436Z,22.52
2023-07-19T18:27:03.628Z,21.67
2023-07-19T18:29:30.636Z,22.05
2023-07-19T18:32:00.026Z,21.73
2023-07-19T18:34:26.927Z,22.48
2023-07-19T18:36:56.462Z,22.45
2023-07-19T18:39:23.370Z,21.82
2023-07-19T18:41:50.493Z,21.62
2023-07-19T18:44:17.192Z,22.24
2023-07-19T18:46:44.409Z,21.65
2023-07-19T18:49:11.360Z,21.36
2023-07-19T18:51:38.152Z,20.98
2023-07-19T18:54:04.990Z,21.96
2023-07-19T18:56:32.465Z,21.26
2023-07-19T18:58:59.325Z,21.52
2023-07-19T19:01:26.623Z,21.84
2023-07-19T19:03:55.219Z,21.91
2023-07-19T19:06:24.932Z,21.85
2023-07-19T19:08:51.741Z,21.90
2023-07-19T19:11:18.809Z,21.70
2023-07-19T19:13:45.803Z,21.07
2023-07-19T19:16:13.090Z,21.52
2023-07-19T19:18:39.930Z,21.32
2023-07-19T19:21:07.727Z,21.42
2023-07-19T19:23:35.644Z,20.73
2023-07-19T19:26:02.651Z,20.35
2023-07-19T19:28:30.366Z,21.05
2023-07-19T19:30:59.363Z,21.10
2023-07-19T19:33:26.246Z,21.80
2023-07-19T19:35:53.717Z,21.68
2023-07-19T19:38:27.315Z,21.72
2023-07-19T19:40:58.803Z,21.01
2023-07-19T19:43:26.159Z,21.29
2023-07-19T19:45:54.440Z,21.54
2023-07-19T19:48:21.203Z,20.73
2023-07-19T19:50:48.049Z,21.56
2023-07-19T19:53:15.539Z,20.97
2023-07-19T19:58:17.045Z,21.42
2023-07-19T20:00:43.904Z,21.22
2023-07-19T20:08:11.648Z,20.94
2023-07-19T20:10:59.213Z,21.26
2023-07-19T20:13:26.588Z,20.91
2023-07-19T20:16:01.142Z,20.80
2023-07-19T20:18:47.312Z,20.78
2023-07-19T20:21:15.281Z,21.16
2023-07-19T20:23:42.154Z,20.12
2023-07-19T20:26:14.788Z,20.65
2023-07-19T20:28:47.511Z,20.54
2023-07-19T20:34:33.650Z,20.35
2023-07-19T20:41:36.661Z,20.09
2023-07-19T20:44:03.685Z,20.44
2023-07-19T20:46:34.420Z,20.35
2023-07-19T20:49:13.453Z,20.92
2023-07-19T20:51:43.760Z,20.62
2023-07-19T20:54:15.095Z,20.55
2023-07-19T20:56:42.498Z,20.89
2023-07-19T20:59:09.543Z,19.80
2023-07-19T21:01:40.429Z,20.75
2023-07-19T21:04:07.669Z,20.16
2023-07-19T21:06:34.410Z,19.77
2023-07-19T21:09:01.585Z,20.21
2023-07-19T21:11:30.909Z,20.04
2023-07-19T21:13:58.012Z,18.79
2023-07-19T21:16:26.915Z,19.88
2023-07-19T21:18:56.035Z,20.67
2023-07-19T21:21:24.026Z,19.49
2023-07-19T21:23:51.779Z,20.50
2023-07-19T21:26:18.652Z,19.80
2023-07-19T21:28:45.715Z,19.64
2023-07-19T21:31:12.710Z,20.50
2023-07-19T21:33:39.657Z,20.17
2023-07-19T21:36:06.475Z,19.53
2023-07-19T21:38:36.067Z,19.67
2023-07-19T21:41:05.101Z,20.53
2023-07-19T21:43:37.612Z,20.26
2023-07-19T21:46:07.728Z,20.46
2023-07-19T21:48:34.576Z,19.88
2023-07-19T21:51:01.297Z,19.85
2023-07-19T21:53:28.689Z,19.42
2023-07-19T21:55:55.372Z,19.69
2023-07-19T21:58:22.461Z,20.30
2023-07-19T22:00:53.604Z,20.33
2023-07-19T22:03:20.723Z,18.88
2023-07-19T22:05:48.406Z,19.57
2023-07-19T22:08:15.353Z,19.23
2023-07-19T22:10:42.580Z,19.59
2023-07-19T22:13:09.763Z,19.76
2023-07-19T22:15:39.422Z,18.84
2023-07-19T22:18:22.966Z,20.28
2023-07-19T22:20:50.999Z,19.09
2023-07-19T22:23:19.356Z,20.04
2023-07-19T22:25:48.594Z,20.25
2023-07-19T22:28:18.724Z,18.79
2023-07-19T22:30:46.379Z,20.13
2023-07-19T22:33:16.059Z,19.95
2023-07-19T22:35:43.368Z,19.51
2023-07-19T22:38:10.289Z,19.61
2023-07-19T22:40:40.098Z,19.41
2023-07-19T22:43:11.474Z,20.19
2023-07-19T22:45:38.564Z,19.88
2023-07-19T22:48:08.701Z,20.11
2023-07-19T22:50:35.853Z,18.83
2023-07-19T22:53:04.015Z,18.82
2023-07-19T22:55:30.882Z,19.89
2023-07-19T22:57:57.803Z,20.04
2023-07-19T23:00:25.255Z,18.55
2023-07-19T23:02:52.501Z,18.77
2023-07-19T23:05:21.638Z,18.73
2023-07-19T23:07:48.475Z,19.96
2023-07-19T23:10:15.190Z,19.96
2023-07-19T23:12:42.175Z,19.40
2023-07-19T23:15:10.454Z,18.89
2023-07-19T23:17:37.306Z,18.99
2023-07-19T23:20:07.322Z,19.52
2023-07-19T23:22:36.854Z,19.69
2023-07-19T23:25:04.283Z,18.76
2023-07-19T23:27:31.020Z,19.67
2023-07-19T23:29:58.041Z,18.60
2023-07-19T23:32:25.019Z,19.51
2023-07-19T23:34:51.846Z,18.61
2023-07-19T23:37:19.307Z,19.53
2023-07-19T23:39:46.165Z,19.65
2023-07-19T23:42:12.971Z,19.35
2023-07-19T23:44:40.888Z,19.33
2023-07-19T23:47:11.119Z,18.68
2023-07-19T23:49:38.066Z,18.40
2023-07-19T23:52:05.847Z,19.06
2023-07-19T23:54:33.260Z,18.05
2023-07-19T23:57:00.195Z,19.17
2023-07-19T23:59:27.722Z,17.95
